sensor_id;sensor_type;location;lat;lon;timestamp;temperature;humidity
12911;DHT22;6523;49.758;6.120;2024-03-29T00:00:41;8.10;99.90
12911;DHT22;6523;49.758;6.120;2024-03-29T00:03:07;8.20;99.90
12911;DHT22;6523;49.758;6.120;2024-03-29T00:05:33;8.10;99.90
12911;DHT22;6523;49.758;6.120;2024-03-29T00:07:59;8.10;99.90
12911;DHT22;6523;49.758;6.120;2024-03-29T00:10:25;8.10;99.90
12911;DHT22;6523;49.758;6.120;2024-03-29T00:12:51;8.00;99.90
12911;DHT22;6523;49.758;6.120;2024-03-29T00:15:16;8.10;99.90
12911;DHT22;6523;49.758;6.120;2024-03-29T00:17:42;8.20;99.90
12911;DHT22;6523;49.758;6.120;2024-03-29T00:20:08;8.30;99.90
12911;DHT22;6523;49.758;6.120;2024-03-29T00:22:34;8.20;99.90
12911;DHT22;6523;49.758;6.120;2024-03-29T00:25:00;8.40;99.90
12911;DHT22;6523;49.758;6.120;2024-03-29T00:27:26;8.30;99.90
12911;DHT22;6523;49.758;6.120;2024-03-29T00:29:53;8.30;99.90
12911;DHT22;6523;49.758;6.120;2024-03-29T00:32:20;8.30;99.90
12911;DHT22;6523;49.758;6.120;2024-03-29T00:34:45;8.40;99.90
12911;DHT22;6523;49.758;6.120;2024-03-29T00:37:11;8.30;99.90
12911;DHT22;6523;49.758;6.120;2024-03-29T00:39:37;8.30;99.90
12911;DHT22;6523;49.758;6.120;2024-03-29T00:42:03;8.20;99.90
12911;DHT22;6523;49.758;6.120;2024-03-29T00:44:32;8.30;99.90
12911;DHT22;6523;49.758;6.120;2024-03-29T00:46:57;8.40;99.90
12911;DHT22;6523;49.758;6.120;2024-03-29T00:49:23;8.40;99.90
12911;DHT22;6523;49.758;6.120;2024-03-29T00:51:49;8.40;99.90
12911;DHT22;6523;49.758;6.120;2024-03-29T00:54:14;8.40;99.90
12911;DHT22;6523;49.758;6.120;2024-03-29T00:56:40;8.40;99.90
12911;DHT22;6523;49.758;6.120;2024-03-29T00:59:06;8.30;99.90
12911;DHT22;6523;49.758;6.120;2024-03-29T01:01:31;8.10;99.90
12911;DHT22;6523;49.758;6.120;2024-03-29T01:03:57;8.10;99.90
12911;DHT22;6523;49.758;6.120;2024-03-29T01:06:23;8.30;99.90
12911;DHT22;6523;49.758;6.120;2024-03-29T01:08:49;8.30;99.90
12911;DHT22;6523;49.758;6.120;2024-03-29T01:11:14;8.80;99.90
12911;DHT22;6523;49.758;6.120;2024-03-29T01:13:40;8.80;99.90
12911;DHT22;6523;49.758;6.120;2024-03-29T01:16:06;8.80;99.90
12911;DHT22;6523;49.758;6.120;2024-03-29T01:18:32;8.70;99.90
12911;DHT22;6523;49.758;6.120;2024-03-29T01:20:59;8.50;99.90
12911;DHT22;6523;49.758;6.120;2024-03-29T01:23:24;8.50;99.90
12911;DHT22;6523;49.758;6.120;2024-03-29T01:25:50;8.40;99.90
12911;DHT22;6523;49.758;6.120;2024-03-29T01:28:16;8.30;99.90
12911;DHT22;6523;49.758;6.120;2024-03-29T01:30:41;8.20;99.90
12911;DHT22;6523;49.758;6.120;2024-03-29T01:33:07;8.10;99.90
12911;DHT22;6523;49.758;6.120;2024-03-29T01:35:33;8.00;99.90
12911;DHT22;6523;49.758;6.120;2024-03-29T01:38:01;8.00;99.90
12911;DHT22;6523;49.758;6.120;2024-03-29T01:40:27;8.00;99.90
12911;DHT22;6523;49.758;6.120;2024-03-29T01:42:53;8.00;99.90
12911;DHT22;6523;49.758;6.120;2024-03-29T01:45:19;8.40;99.90
12911;DHT22;6523;49.758;6.120;2024-03-29T01:47:46;8.40;99.90
12911;DHT22;6523;49.758;6.120;2024-03-29T01:50:12;8.60;99.90
12911;DHT22;6523;49.758;6.120;2024-03-29T01:52:38;8.30;99.90
12911;DHT22;6523;49.758;6.120;2024-03-29T01:55:05;8.20;99.90
12911;DHT22;6523;49.758;6.120;2024-03-29T01:57:30;8.00;99.90
12911;DHT22;6523;49.758;6.120;2024-03-29T01:59:57;7.90;99.90
12911;DHT22;6523;49.758;6.120;2024-03-29T02:02:23;7.80;99.90
12911;DHT22;6523;49.758;6.120;2024-03-29T02:04:49;7.80;99.90
12911;DHT22;6523;49.758;6.120;2024-03-29T02:07:15;7.70;99.90
12911;DHT22;6523;49.758;6.120;2024-03-29T02:09:41;7.60;99.90
12911;DHT22;6523;49.758;6.120;2024-03-29T02:12:07;7.60;99.90
12911;DHT22;6523;49.758;6.120;2024-03-29T02:14:33;7.50;99.90
12911;DHT22;6523;49.758;6.120;2024-03-29T02:16:58;7.50;99.90
12911;DHT22;6523;49.758;6.120;2024-03-29T02:19:24;7.50;99.90
12911;DHT22;6523;49.758;6.120;2024-03-29T02:21:52;7.50;99.90
12911;DHT22;6523;49.758;6.120;2024-03-29T02:24:20;7.40;99.90
12911;DHT22;6523;49.758;6.120;2024-03-29T02:26:46;7.40;99.90
12911;DHT22;6523;49.758;6.120;2024-03-29T02:29:12;7.40;99.90
12911;DHT22;6523;49.758;6.120;2024-03-29T02:31:38;7.40;99.90
12911;DHT22;6523;49.758;6.120;2024-03-29T02:34:03;7.40;99.90
12911;DHT22;6523;49.758;6.120;2024-03-29T02:36:29;7.30;99.90
12911;DHT22;6523;49.758;6.120;2024-03-29T02:38:55;7.30;99.90
12911;DHT22;6523;49.758;6.120;2024-03-29T02:41:21;7.30;99.90
12911;DHT22;6523;49.758;6.120;2024-03-29T02:43:47;7.30;99.90
12911;DHT22;6523;49.758;6.120;2024-03-29T02:46:13;7.30;99.90
12911;DHT22;6523;49.758;6.120;2024-03-29T02:48:38;7.30;99.90
12911;DHT22;6523;49.758;6.120;2024-03-29T02:51:04;7.30;99.90
12911;DHT22;6523;49.758;6.120;2024-03-29T02:53:30;7.30;99.90
12911;DHT22;6523;49.758;6.120;2024-03-29T02:55:55;7.20;99.90
12911;DHT22;6523;49.758;6.120;2024-03-29T02:58:21;7.20;99.90
12911;DHT22;6523;49.758;6.120;2024-03-29T03:00:47;7.20;99.90
12911;DHT22;6523;49.758;6.120;2024-03-29T03:03:15;7.50;99.90
12911;DHT22;6523;49.758;6.120;2024-03-29T03:05:41;7.60;99.90
12911;DHT22;6523;49.758;6.120;2024-03-29T03:08:06;7.80;99.90
12911;DHT22;6523;49.758;6.120;2024-03-29T03:10:51;8.00;99.90
12911;DHT22;6523;49.758;6.120;2024-03-29T03:13:29;8.30;99.90
12911;DHT22;6523;49.758;6.120;2024-03-29T03:15:55;8.30;99.90
12911;DHT22;6523;49.758;6.120;2024-03-29T03:18:21;8.30;99.90
12911;DHT22;6523;49.758;6.120;2024-03-29T03:20:55;8.30;99.90
12911;DHT22;6523;49.758;6.120;2024-03-29T03:23:23;8.20;99.90
12911;DHT22;6523;49.758;6.120;2024-03-29T03:26:01;8.20;99.90
12911;DHT22;6523;49.758;6.120;2024-03-29T03:28:28;8.20;99.90
12911;DHT22;6523;49.758;6.120;2024-03-29T03:30:54;8.10;99.90
12911;DHT22;6523;49.758;6.120;2024-03-29T03:33:20;8.20;99.90
12911;DHT22;6523;49.758;6.120;2024-03-29T03:35:46;8.10;99.90
12911;DHT22;6523;49.758;6.120;2024-03-29T03:38:13;8.10;99.90
12911;DHT22;6523;49.758;6.120;2024-03-29T03:40:39;8.10;99.90
12911;DHT22;6523;49.758;6.120;2024-03-29T03:43:06;8.20;99.90
12911;DHT22;6523;49.758;6.120;2024-03-29T03:45:38;8.20;99.90
12911;DHT22;6523;49.758;6.120;2024-03-29T03:48:05;8.30;99.90
12911;DHT22;6523;49.758;6.120;2024-03-29T03:50:32;8.20;99.90
12911;DHT22;6523;49.758;6.120;2024-03-29T03:52:57;8.30;99.90
12911;DHT22;6523;49.758;6.120;2024-03-29T03:55:23;8.20;99.90
12911;DHT22;6523;49.758;6.120;2024-03-29T03:57:49;8.30;99.90
12911;DHT22;6523;49.758;6.120;2024-03-29T04:00:17;8.30;99.90
12911;DHT22;6523;49.758;6.120;2024-03-29T04:02:50;8.30;99.90
12911;DHT22;6523;49.758;6.120;2024-03-29T04:05:19;8.30;99.90
12911;DHT22;6523;49.758;6.120;2024-03-29T04:07:45;8.30;99.90
12911;DHT22;6523;49.758;6.120;2024-03-29T04:10:12;8.20;99.90
12911;DHT22;6523;49.758;6.120;2024-03-29T04:12:38;8.30;99.90
12911;DHT22;6523;49.758;6.120;2024-03-29T04:15:04;8.20;99.90
12911;DHT22;6523;49.758;6.120;2024-03-29T04:17:31;8.20;99.90
12911;DHT22;6523;49.758;6.120;2024-03-29T04:19:57;8.20;99.90
12911;DHT22;6523;49.758;6.120;2024-03-29T04:22:23;8.20;99.90
12911;DHT22;6523;49.758;6.120;2024-03-29T04:24:49;8.20;99.90
12911;DHT22;6523;49.758;6.120;2024-03-29T04:27:15;8.30;99.90
12911;DHT22;6523;49.758;6.120;2024-03-29T04:29:40;8.30;99.90
12911;DHT22;6523;49.758;6.120;2024-03-29T04:32:06;8.30;99.90
12911;DHT22;6523;49.758;6.120;2024-03-29T04:34:33;8.30;99.90
12911;DHT22;6523;49.758;6.120;2024-03-29T04:36:58;8.30;99.90
12911;DHT22;6523;49.758;6.120;2024-03-29T04:39:24;8.30;99.90
12911;DHT22;6523;49.758;6.120;2024-03-29T04:41:49;8.40;99.90
12911;DHT22;6523;49.758;6.120;2024-03-29T04:44:23;8.40;99.90
12911;DHT22;6523;49.758;6.120;2024-03-29T04:46:50;8.50;99.90
12911;DHT22;6523;49.758;6.120;2024-03-29T04:49:15;8.40;99.90
12911;DHT22;6523;49.758;6.120;2024-03-29T04:51:48;8.50;99.90
12911;DHT22;6523;49.758;6.120;2024-03-29T04:54:14;8.40;99.90
12911;DHT22;6523;49.758;6.120;2024-03-29T04:56:41;8.50;99.90
12911;DHT22;6523;49.758;6.120;2024-03-29T04:59:07;8.50;99.90
12911;DHT22;6523;49.758;6.120;2024-03-29T05:01:34;8.60;99.90
12911;DHT22;6523;49.758;6.120;2024-03-29T05:04:00;8.60;99.90
12911;DHT22;6523;49.758;6.120;2024-03-29T05:06:26;8.70;99.90
12911;DHT22;6523;49.758;6.120;2024-03-29T05:08:52;8.80;99.90
12911;DHT22;6523;49.758;6.120;2024-03-29T05:11:18;8.70;99.90
12911;DHT22;6523;49.758;6.120;2024-03-29T05:13:44;8.80;99.90
12911;DHT22;6523;49.758;6.120;2024-03-29T05:16:10;8.90;99.90
12911;DHT22;6523;49.758;6.120;2024-03-29T05:18:36;8.90;99.90
12911;DHT22;6523;49.758;6.120;2024-03-29T05:21:01;9.00;99.90
12911;DHT22;6523;49.758;6.120;2024-03-29T05:23:27;9.00;99.90
12911;DHT22;6523;49.758;6.120;2024-03-29T05:25:53;8.90;99.90
12911;DHT22;6523;49.758;6.120;2024-03-29T05:28:19;9.00;99.90
12911;DHT22;6523;49.758;6.120;2024-03-29T05:30:45;9.00;99.90
12911;DHT22;6523;49.758;6.120;2024-03-29T05:33:10;9.10;99.90
12911;DHT22;6523;49.758;6.120;2024-03-29T05:35:36;9.00;99.90
12911;DHT22;6523;49.758;6.120;2024-03-29T05:38:02;9.00;99.90
12911;DHT22;6523;49.758;6.120;2024-03-29T05:40:28;9.10;99.90
12911;DHT22;6523;49.758;6.120;2024-03-29T05:42:54;9.10;99.90
12911;DHT22;6523;49.758;6.120;2024-03-29T05:45:25;9.20;99.90
12911;DHT22;6523;49.758;6.120;2024-03-29T05:47:52;9.20;99.90
12911;DHT22;6523;49.758;6.120;2024-03-29T05:50:17;9.20;99.90
12911;DHT22;6523;49.758;6.120;2024-03-29T05:52:43;9.20;99.90
12911;DHT22;6523;49.758;6.120;2024-03-29T05:55:09;9.30;99.90
12911;DHT22;6523;49.758;6.120;2024-03-29T05:57:35;9.30;99.90
12911;DHT22;6523;49.758;6.120;2024-03-29T06:00:05;9.30;99.90
12911;DHT22;6523;49.758;6.120;2024-03-29T06:02:31;9.30;99.90
12911;DHT22;6523;49.758;6.120;2024-03-29T06:04:57;9.40;99.90
12911;DHT22;6523;49.758;6.120;2024-03-29T06:07:22;9.40;99.90
12911;DHT22;6523;49.758;6.120;2024-03-29T06:09:48;9.50;99.90
12911;DHT22;6523;49.758;6.120;2024-03-29T06:12:14;9.50;99.90
12911;DHT22;6523;49.758;6.120;2024-03-29T06:14:39;9.50;99.90
12911;DHT22;6523;49.758;6.120;2024-03-29T06:17:24;9.50;99.90
12911;DHT22;6523;49.758;6.120;2024-03-29T06:19:54;9.50;99.90
12911;DHT22;6523;49.758;6.120;2024-03-29T06:22:24;9.50;99.90
12911;DHT22;6523;49.758;6.120;2024-03-29T06:24:51;9.50;99.90
12911;DHT22;6523;49.758;6.120;2024-03-29T06:27:20;9.50;99.90
12911;DHT22;6523;49.758;6.120;2024-03-29T06:29:48;9.50;99.90
12911;DHT22;6523;49.758;6.120;2024-03-29T06:32:14;9.50;99.90
12911;DHT22;6523;49.758;6.120;2024-03-29T06:34:41;9.60;99.90
12911;DHT22;6523;49.758;6.120;2024-03-29T06:37:07;9.60;99.90
12911;DHT22;6523;49.758;6.120;2024-03-29T06:39:33;9.60;99.90
12911;DHT22;6523;49.758;6.120;2024-03-29T06:41:58;9.60;99.90
12911;DHT22;6523;49.758;6.120;2024-03-29T06:44:24;9.60;99.90
12911;DHT22;6523;49.758;6.120;2024-03-29T06:46:50;9.60;99.90
12911;DHT22;6523;49.758;6.120;2024-03-29T06:49:16;9.60;99.90
12911;DHT22;6523;49.758;6.120;2024-03-29T06:51:43;9.60;99.90
12911;DHT22;6523;49.758;6.120;2024-03-29T06:54:09;9.60;99.90
12911;DHT22;6523;49.758;6.120;2024-03-29T06:56:34;9.60;99.90
12911;DHT22;6523;49.758;6.120;2024-03-29T06:59:00;9.70;99.90
12911;DHT22;6523;49.758;6.120;2024-03-29T07:01:26;9.70;99.90
12911;DHT22;6523;49.758;6.120;2024-03-29T07:03:51;9.70;99.90
12911;DHT22;6523;49.758;6.120;2024-03-29T07:06:17;9.70;99.90
12911;DHT22;6523;49.758;6.120;2024-03-29T07:08:43;9.70;99.90
12911;DHT22;6523;49.758;6.120;2024-03-29T07:11:08;9.70;99.90
12911;DHT22;6523;49.758;6.120;2024-03-29T07:13:35;9.70;99.90
12911;DHT22;6523;49.758;6.120;2024-03-29T07:16:01;9.70;99.90
12911;DHT22;6523;49.758;6.120;2024-03-29T07:18:27;9.80;99.90
12911;DHT22;6523;49.758;6.120;2024-03-29T07:20:53;9.80;99.90
12911;DHT22;6523;49.758;6.120;2024-03-29T07:23:20;9.80;99.90
12911;DHT22;6523;49.758;6.120;2024-03-29T07:26:00;9.80;99.90
12911;DHT22;6523;49.758;6.120;2024-03-29T07:28:26;9.80;99.90
12911;DHT22;6523;49.758;6.120;2024-03-29T07:30:52;9.80;99.90
12911;DHT22;6523;49.758;6.120;2024-03-29T07:33:22;9.80;99.90
12911;DHT22;6523;49.758;6.120;2024-03-29T07:35:54;9.80;99.90
12911;DHT22;6523;49.758;6.120;2024-03-29T07:38:21;9.90;99.90
12911;DHT22;6523;49.758;6.120;2024-03-29T07:40:47;9.90;99.90
12911;DHT22;6523;49.758;6.120;2024-03-29T07:43:13;9.90;99.90
12911;DHT22;6523;49.758;6.120;2024-03-29T07:45:42;10.00;99.90
12911;DHT22;6523;49.758;6.120;2024-03-29T07:48:14;9.90;99.90
12911;DHT22;6523;49.758;6.120;2024-03-29T07:50:40;9.90;99.90
12911;DHT22;6523;49.758;6.120;2024-03-29T07:53:06;9.90;99.90
12911;DHT22;6523;49.758;6.120;2024-03-29T07:55:32;9.90;99.90
12911;DHT22;6523;49.758;6.120;2024-03-29T07:57:57;9.90;99.90
12911;DHT22;6523;49.758;6.120;2024-03-29T08:00:25;9.90;99.90
12911;DHT22;6523;49.758;6.120;2024-03-29T08:02:50;10.00;99.90
12911;DHT22;6523;49.758;6.120;2024-03-29T08:05:18;10.00;99.90
12911;DHT22;6523;49.758;6.120;2024-03-29T08:07:43;9.90;99.90
12911;DHT22;6523;49.758;6.120;2024-03-29T08:10:09;10.00;99.90
12911;DHT22;6523;49.758;6.120;2024-03-29T08:12:35;10.00;99.90
12911;DHT22;6523;49.758;6.120;2024-03-29T08:15:03;10.00;99.90
12911;DHT22;6523;49.758;6.120;2024-03-29T08:17:29;10.00;99.90
12911;DHT22;6523;49.758;6.120;2024-03-29T08:19:54;10.00;99.90
12911;DHT22;6523;49.758;6.120;2024-03-29T08:22:20;10.00;99.90
12911;DHT22;6523;49.758;6.120;2024-03-29T08:24:46;10.00;99.90
12911;DHT22;6523;49.758;6.120;2024-03-29T08:27:12;10.00;99.90
12911;DHT22;6523;49.758;6.120;2024-03-29T08:29:37;10.10;99.90
12911;DHT22;6523;49.758;6.120;2024-03-29T08:32:03;10.20;99.90
12911;DHT22;6523;49.758;6.120;2024-03-29T08:34:29;10.20;99.90
12911;DHT22;6523;49.758;6.120;2024-03-29T08:37:01;10.30;99.90
12911;DHT22;6523;49.758;6.120;2024-03-29T08:39:28;10.30;99.90
12911;DHT22;6523;49.758;6.120;2024-03-29T08:41:54;10.30;99.90
12911;DHT22;6523;49.758;6.120;2024-03-29T08:44:19;10.40;99.90
12911;DHT22;6523;49.758;6.120;2024-03-29T08:46:45;10.30;99.90
12911;DHT22;6523;49.758;6.120;2024-03-29T08:49:11;10.20;99.90
12911;DHT22;6523;49.758;6.120;2024-03-29T08:51:36;10.20;99.90
12911;DHT22;6523;49.758;6.120;2024-03-29T08:54:02;10.20;99.90
12911;DHT22;6523;49.758;6.120;2024-03-29T08:56:33;10.20;99.90
12911;DHT22;6523;49.758;6.120;2024-03-29T08:59:03;10.10;99.90
12911;DHT22;6523;49.758;6.120;2024-03-29T09:01:33;10.20;99.90
12911;DHT22;6523;49.758;6.120;2024-03-29T09:03:59;10.20;99.90
12911;DHT22;6523;49.758;6.120;2024-03-29T09:06:24;10.40;99.90
12911;DHT22;6523;49.758;6.120;2024-03-29T09:08:50;10.40;99.90
12911;DHT22;6523;49.758;6.120;2024-03-29T09:11:16;10.50;99.90
12911;DHT22;6523;49.758;6.120;2024-03-29T09:13:41;10.50;99.90
12911;DHT22;6523;49.758;6.120;2024-03-29T09:16:07;10.60;99.90
12911;DHT22;6523;49.758;6.120;2024-03-29T09:18:33;10.60;99.90
12911;DHT22;6523;49.758;6.120;2024-03-29T09:20:59;10.60;99.90
12911;DHT22;6523;49.758;6.120;2024-03-29T09:23:26;10.50;99.90
12911;DHT22;6523;49.758;6.120;2024-03-29T09:25:56;10.40;99.90
12911;DHT22;6523;49.758;6.120;2024-03-29T09:28:23;10.40;99.90
12911;DHT22;6523;49.758;6.120;2024-03-29T09:30:48;10.30;99.90
12911;DHT22;6523;49.758;6.120;2024-03-29T09:33:14;10.40;99.90
12911;DHT22;6523;49.758;6.120;2024-03-29T09:35:40;10.30;99.90
12911;DHT22;6523;49.758;6.120;2024-03-29T09:38:06;10.40;99.90
12911;DHT22;6523;49.758;6.120;2024-03-29T09:40:32;10.40;99.90
12911;DHT22;6523;49.758;6.120;2024-03-29T09:43:00;10.50;99.90
12911;DHT22;6523;49.758;6.120;2024-03-29T09:45:35;10.60;99.90
12911;DHT22;6523;49.758;6.120;2024-03-29T09:48:04;10.60;99.90
12911;DHT22;6523;49.758;6.120;2024-03-29T09:50:33;10.60;99.90
12911;DHT22;6523;49.758;6.120;2024-03-29T09:53:00;10.60;99.90
12911;DHT22;6523;49.758;6.120;2024-03-29T09:55:27;10.50;99.90
12911;DHT22;6523;49.758;6.120;2024-03-29T09:57:54;10.40;99.90
12911;DHT22;6523;49.758;6.120;2024-03-29T10:00:20;10.30;99.90
12911;DHT22;6523;49.758;6.120;2024-03-29T10:02:48;10.40;99.90
12911;DHT22;6523;49.758;6.120;2024-03-29T10:05:14;10.30;99.90
12911;DHT22;6523;49.758;6.120;2024-03-29T10:07:41;10.40;99.90
12911;DHT22;6523;49.758;6.120;2024-03-29T10:10:08;10.50;99.90
12911;DHT22;6523;49.758;6.120;2024-03-29T10:12:34;10.60;99.90
12911;DHT22;6523;49.758;6.120;2024-03-29T10:15:00;10.60;99.90
12911;DHT22;6523;49.758;6.120;2024-03-29T10:17:34;10.60;99.90
12911;DHT22;6523;49.758;6.120;2024-03-29T10:20:03;10.50;99.90
12911;DHT22;6523;49.758;6.120;2024-03-29T10:22:42;10.50;99.90
12911;DHT22;6523;49.758;6.120;2024-03-29T10:25:08;10.50;99.90
12911;DHT22;6523;49.758;6.120;2024-03-29T10:27:34;10.50;99.90
12911;DHT22;6523;49.758;6.120;2024-03-29T10:30:00;10.50;99.90
12911;DHT22;6523;49.758;6.120;2024-03-29T10:32:25;10.50;99.90
12911;DHT22;6523;49.758;6.120;2024-03-29T10:34:51;10.50;99.90
12911;DHT22;6523;49.758;6.120;2024-03-29T10:37:18;10.40;99.90
12911;DHT22;6523;49.758;6.120;2024-03-29T10:39:50;10.50;99.90
12911;DHT22;6523;49.758;6.120;2024-03-29T10:42:17;10.50;99.90
12911;DHT22;6523;49.758;6.120;2024-03-29T10:44:44;10.50;99.90
12911;DHT22;6523;49.758;6.120;2024-03-29T10:47:18;10.50;99.90
12911;DHT22;6523;49.758;6.120;2024-03-29T10:49:44;10.50;99.90
12911;DHT22;6523;49.758;6.120;2024-03-29T10:52:13;10.60;99.90
12911;DHT22;6523;49.758;6.120;2024-03-29T10:54:45;10.70;99.90
12911;DHT22;6523;49.758;6.120;2024-03-29T10:57:23;10.80;99.90
12911;DHT22;6523;49.758;6.120;2024-03-29T11:00:08;10.80;99.90
12911;DHT22;6523;49.758;6.120;2024-03-29T11:05:18;10.70;99.90
12911;DHT22;6523;49.758;6.120;2024-03-29T11:07:45;10.70;99.90
12911;DHT22;6523;49.758;6.120;2024-03-29T11:13:06;10.70;99.90
12911;DHT22;6523;49.758;6.120;2024-03-29T11:15:38;10.80;99.90
12911;DHT22;6523;49.758;6.120;2024-03-29T11:18:08;10.90;99.90
12911;DHT22;6523;49.758;6.120;2024-03-29T11:20:34;11.10;99.90
12911;DHT22;6523;49.758;6.120;2024-03-29T11:23:14;11.20;99.90
12911;DHT22;6523;49.758;6.120;2024-03-29T11:28:13;11.10;99.90
12911;DHT22;6523;49.758;6.120;2024-03-29T11:30:46;11.00;99.90
12911;DHT22;6523;49.758;6.120;2024-03-29T11:36:05;11.00;99.90
12911;DHT22;6523;49.758;6.120;2024-03-29T11:38:35;11.00;99.90
12911;DHT22;6523;49.758;6.120;2024-03-29T11:43:34;11.30;99.90
12911;DHT22;6523;49.758;6.120;2024-03-29T11:46:01;11.20;99.90
12911;DHT22;6523;49.758;6.120;2024-03-29T11:48:29;11.10;99.90
12911;DHT22;6523;49.758;6.120;2024-03-29T11:50:57;11.00;99.90
12911;DHT22;6523;49.758;6.120;2024-03-29T11:53:23;11.20;99.90
12911;DHT22;6523;49.758;6.120;2024-03-29T11:55:49;11.30;99.90
12911;DHT22;6523;49.758;6.120;2024-03-29T11:58:20;11.50;99.90
12911;DHT22;6523;49.758;6.120;2024-03-29T12:00:45;11.80;99.90
12911;DHT22;6523;49.758;6.120;2024-03-29T12:03:13;11.70;99.90
12911;DHT22;6523;49.758;6.120;2024-03-29T12:05:39;11.80;99.90
12911;DHT22;6523;49.758;6.120;2024-03-29T12:08:05;11.60;99.90
12911;DHT22;6523;49.758;6.120;2024-03-29T12:10:31;11.60;99.90
12911;DHT22;6523;49.758;6.120;2024-03-29T12:12:57;11.70;99.90
12911;DHT22;6523;49.758;6.120;2024-03-29T12:15:27;11.90;99.90
12911;DHT22;6523;49.758;6.120;2024-03-29T12:17:57;11.90;99.90
12911;DHT22;6523;49.758;6.120;2024-03-29T12:20:23;11.80;99.90
12911;DHT22;6523;49.758;6.120;2024-03-29T12:22:49;11.70;99.90
12911;DHT22;6523;49.758;6.120;2024-03-29T12:25:15;11.60;99.90
12911;DHT22;6523;49.758;6.120;2024-03-29T12:27:43;11.80;99.90
12911;DHT22;6523;49.758;6.120;2024-03-29T12:30:12;11.70;99.90
12911;DHT22;6523;49.758;6.120;2024-03-29T12:32:38;11.70;99.90
12911;DHT22;6523;49.758;6.120;2024-03-29T12:35:11;11.70;99.90
12911;DHT22;6523;49.758;6.120;2024-03-29T12:37:37;11.60;99.90
12911;DHT22;6523;49.758;6.120;2024-03-29T12:40:06;11.40;99.90
12911;DHT22;6523;49.758;6.120;2024-03-29T12:42:41;11.30;99.90
12911;DHT22;6523;49.758;6.120;2024-03-29T12:45:07;11.10;99.90
12911;DHT22;6523;49.758;6.120;2024-03-29T12:47:36;11.10;99.90
12911;DHT22;6523;49.758;6.120;2024-03-29T12:50:03;11.30;99.90
12911;DHT22;6523;49.758;6.120;2024-03-29T12:52:39;11.40;99.90
12911;DHT22;6523;49.758;6.120;2024-03-29T12:55:07;12.00;99.90
12911;DHT22;6523;49.758;6.120;2024-03-29T12:57:34;11.70;99.90
12911;DHT22;6523;49.758;6.120;2024-03-29T13:00:00;11.60;99.90
12911;DHT22;6523;49.758;6.120;2024-03-29T13:02:26;11.70;99.90
12911;DHT22;6523;49.758;6.120;2024-03-29T13:04:52;12.10;99.90
12911;DHT22;6523;49.758;6.120;2024-03-29T13:07:17;12.30;99.90
12911;DHT22;6523;49.758;6.120;2024-03-29T13:09:43;11.90;99.90
12911;DHT22;6523;49.758;6.120;2024-03-29T13:12:09;11.70;99.90
12911;DHT22;6523;49.758;6.120;2024-03-29T13:14:34;11.80;99.90
12911;DHT22;6523;49.758;6.120;2024-03-29T13:17:00;11.80;99.90
12911;DHT22;6523;49.758;6.120;2024-03-29T13:19:26;11.70;99.90
12911;DHT22;6523;49.758;6.120;2024-03-29T13:21:51;11.60;99.90
12911;DHT22;6523;49.758;6.120;2024-03-29T13:24:17;11.50;99.90
12911;DHT22;6523;49.758;6.120;2024-03-29T13:26:43;11.40;99.90
12911;DHT22;6523;49.758;6.120;2024-03-29T13:29:09;11.50;99.90
12911;DHT22;6523;49.758;6.120;2024-03-29T13:31:38;11.40;99.90
12911;DHT22;6523;49.758;6.120;2024-03-29T13:34:04;11.30;99.90
12911;DHT22;6523;49.758;6.120;2024-03-29T13:36:40;11.30;99.90
12911;DHT22;6523;49.758;6.120;2024-03-29T13:39:07;11.30;99.90
12911;DHT22;6523;49.758;6.120;2024-03-29T13:41:34;11.40;99.90
12911;DHT22;6523;49.758;6.120;2024-03-29T13:44:01;11.50;99.90
12911;DHT22;6523;49.758;6.120;2024-03-29T13:46:35;11.40;99.90
12911;DHT22;6523;49.758;6.120;2024-03-29T13:49:02;11.50;99.90
12911;DHT22;6523;49.758;6.120;2024-03-29T13:51:28;11.70;99.90
12911;DHT22;6523;49.758;6.120;2024-03-29T13:53:54;12.00;99.90
12911;DHT22;6523;49.758;6.120;2024-03-29T13:56:21;12.70;99.90
12911;DHT22;6523;49.758;6.120;2024-03-29T13:58:47;12.50;99.90
12911;DHT22;6523;49.758;6.120;2024-03-29T14:01:13;12.40;99.90
12911;DHT22;6523;49.758;6.120;2024-03-29T14:03:38;12.30;99.90
12911;DHT22;6523;49.758;6.120;2024-03-29T14:06:04;12.30;99.90
12911;DHT22;6523;49.758;6.120;2024-03-29T14:08:31;11.90;99.90
12911;DHT22;6523;49.758;6.120;2024-03-29T14:10:57;11.70;99.90
12911;DHT22;6523;49.758;6.120;2024-03-29T14:13:23;11.60;99.90
12911;DHT22;6523;49.758;6.120;2024-03-29T14:15:49;11.40;99.90
12911;DHT22;6523;49.758;6.120;2024-03-29T14:18:15;11.40;99.90
12911;DHT22;6523;49.758;6.120;2024-03-29T14:20:41;11.40;99.90
12911;DHT22;6523;49.758;6.120;2024-03-29T14:23:06;11.40;99.90
12911;DHT22;6523;49.758;6.120;2024-03-29T14:25:36;11.40;99.90
12911;DHT22;6523;49.758;6.120;2024-03-29T14:28:02;11.40;99.90
12911;DHT22;6523;49.758;6.120;2024-03-29T14:30:29;11.30;99.90
12911;DHT22;6523;49.758;6.120;2024-03-29T14:32:57;11.30;99.90
12911;DHT22;6523;49.758;6.120;2024-03-29T14:35:27;11.20;99.90
12911;DHT22;6523;49.758;6.120;2024-03-29T14:37:54;11.10;99.90
12911;DHT22;6523;49.758;6.120;2024-03-29T14:40:21;11.10;99.90
12911;DHT22;6523;49.758;6.120;2024-03-29T14:42:46;11.10;99.90
12911;DHT22;6523;49.758;6.120;2024-03-29T14:45:12;11.10;99.90
12911;DHT22;6523;49.758;6.120;2024-03-29T14:47:38;11.10;99.90
12911;DHT22;6523;49.758;6.120;2024-03-29T14:50:04;11.00;99.90
12911;DHT22;6523;49.758;6.120;2024-03-29T14:52:36;10.90;99.90
12911;DHT22;6523;49.758;6.120;2024-03-29T14:55:03;10.90;99.90
12911;DHT22;6523;49.758;6.120;2024-03-29T14:57:29;11.00;99.90
12911;DHT22;6523;49.758;6.120;2024-03-29T14:59:55;11.00;99.90
12911;DHT22;6523;49.758;6.120;2024-03-29T15:02:21;10.90;99.90
12911;DHT22;6523;49.758;6.120;2024-03-29T15:04:46;10.80;99.90
12911;DHT22;6523;49.758;6.120;2024-03-29T15:07:12;10.80;99.90
12911;DHT22;6523;49.758;6.120;2024-03-29T15:09:38;10.80;99.90
12911;DHT22;6523;49.758;6.120;2024-03-29T15:12:04;10.70;99.90
12911;DHT22;6523;49.758;6.120;2024-03-29T15:14:31;10.70;99.90
12911;DHT22;6523;49.758;6.120;2024-03-29T15:16:57;10.70;99.90
12911;DHT22;6523;49.758;6.120;2024-03-29T15:19:23;10.70;99.90
12911;DHT22;6523;49.758;6.120;2024-03-29T15:21:49;10.80;99.90
12911;DHT22;6523;49.758;6.120;2024-03-29T15:24:18;10.70;99.90
12911;DHT22;6523;49.758;6.120;2024-03-29T15:26:43;10.70;99.90
12911;DHT22;6523;49.758;6.120;2024-03-29T15:29:09;10.70;99.90
12911;DHT22;6523;49.758;6.120;2024-03-29T15:31:39;10.70;99.90
12911;DHT22;6523;49.758;6.120;2024-03-29T15:34:06;10.70;99.90
12911;DHT22;6523;49.758;6.120;2024-03-29T15:36:32;10.70;99.90
12911;DHT22;6523;49.758;6.120;2024-03-29T15:38:59;10.70;99.90
12911;DHT22;6523;49.758;6.120;2024-03-29T15:41:40;10.70;99.90
12911;DHT22;6523;49.758;6.120;2024-03-29T15:44:06;10.70;99.90
12911;DHT22;6523;49.758;6.120;2024-03-29T15:46:34;10.70;99.90
12911;DHT22;6523;49.758;6.120;2024-03-29T15:48:59;10.70;99.90
12911;DHT22;6523;49.758;6.120;2024-03-29T15:51:25;10.70;99.90
12911;DHT22;6523;49.758;6.120;2024-03-29T15:53:51;10.80;99.90
12911;DHT22;6523;49.758;6.120;2024-03-29T15:56:18;10.80;99.90
12911;DHT22;6523;49.758;6.120;2024-03-29T15:58:45;10.90;99.90
12911;DHT22;6523;49.758;6.120;2024-03-29T16:01:11;10.80;99.90
12911;DHT22;6523;49.758;6.120;2024-03-29T16:03:38;10.80;99.90
12911;DHT22;6523;49.758;6.120;2024-03-29T16:06:04;10.80;99.90